createdAt,value
2022-11-18T00:01:34.198Z,29.80
2022-11-18T00:04:02.665Z,32.15
2022-11-18T00:06:31.158Z,30.75
2022-11-18T00:09:01.268Z,29.35
2022-11-18T00:11:48.489Z,29.35
2022-11-18T00:14:27.430Z,29.42
2022-11-18T00:17:01.509Z,29.75
2022-11-18T00:19:34.131Z,30.92
2022-11-18T00:22:03.169Z,30.87
2022-11-18T00:24:31.855Z,30.35
2022-11-18T00:27:00.521Z,30.80
2022-11-18T00:29:28.955Z,30.08
2022-11-18T00:31:59.956Z,29.98
2022-11-18T00:34:28.376Z,28.50
2022-11-18T00:36:56.557Z,29.67
2022-11-18T00:39:26.131Z,28.83
2022-11-18T00:42:12.769Z,28.67
2022-11-18T00:44:41.002Z,29.15
2022-11-18T00:47:09.206Z,28.35
2022-11-18T00:49:37.373Z,28.27
2022-11-18T00:52:06.457Z,28.95
2022-11-18T00:54:34.655Z,28.55
2022-11-18T00:57:04.160Z,27.45
2022-11-18T00:59:32.408Z,25.50
2022-11-18T01:02:00.582Z,28.17
2022-11-18T01:04:28.810Z,24.98
2022-11-18T01:06:57.116Z,24.50
2022-11-18T01:09:25.319Z,22.58
2022-11-18T01:12:11.838Z,21.83
2022-11-18T01:14:40.047Z,22.27
2022-11-18T01:17:08.190Z,23.08
2022-11-18T01:19:36.504Z,22.77
2022-11-18T01:22:04.848Z,24.00
2022-11-18T01:24:34.002Z,22.75
2022-11-18T01:27:02.603Z,23.77
2022-11-18T01:29:30.980Z,24.00
2022-11-18T01:32:23.361Z,22.67
2022-11-18T01:34:47.283Z,22.23
2022-11-18T01:37:15.586Z,24.75
2022-11-18T01:39:43.759Z,23.10
2022-11-18T01:42:17.105Z,22.20
2022-11-18T01:47:31.779Z,21.40
2022-11-18T01:50:00.780Z,21.52
2022-11-18T01:52:29.828Z,21.73
2022-11-18T01:55:03.584Z,21.92
2022-11-18T01:57:32.591Z,20.83
2022-11-18T02:00:04.699Z,20.35
2022-11-18T02:02:37.745Z,21.55
2022-11-18T02:05:08.979Z,22.33
2022-11-18T02:07:42.902Z,22.00
2022-11-18T02:10:20.258Z,21.90
2022-11-18T02:12:50.513Z,21.38
2022-11-18T02:15:40.361Z,21.27
2022-11-18T02:18:25.257Z,22.40
2022-11-18T02:21:02.266Z,20.58
2022-11-18T02:23:42.698Z,20.90
2022-11-18T02:26:32.749Z,21.75
2022-11-18T02:29:17.535Z,21.38
2022-11-18T02:32:14.416Z,22.42
2022-11-18T02:35:14.827Z,20.80
2022-11-18T02:37:53.986Z,21.60
2022-11-18T02:41:02.378Z,22.45
2022-11-18T02:43:40.790Z,20.80
2022-11-18T02:46:23.828Z,21.65
2022-11-18T02:48:53.429Z,22.13
2022-11-18T02:51:29.418Z,21.73
2022-11-18T02:54:02.712Z,22.58
2022-11-18T02:56:35.270Z,22.15
2022-11-18T02:59:04.547Z,25.15
2022-11-18T03:01:35.686Z,25.98
2022-11-18T03:04:04.308Z,26.17
2022-11-18T03:06:40.479Z,24.73
2022-11-18T03:09:29.639Z,23.67
2022-11-18T03:12:04.851Z,21.67
2022-11-18T03:14:53.858Z,22.42
2022-11-18T03:17:54.959Z,21.17
2022-11-18T03:20:29.238Z,22.08
2022-11-18T03:23:24.887Z,20.98
2022-11-18T03:26:19.038Z,22.65
2022-11-18T03:28:55.009Z,19.60
2022-11-18T03:31:27.812Z,18.52
2022-11-18T03:34:26.607Z,18.77
2022-11-18T03:37:01.120Z,18.98
2022-11-18T03:39:34.047Z,17.95
2022-11-18T03:42:29.559Z,15.60
2022-11-18T03:45:05.263Z,14.32
2022-11-18T03:47:42.462Z,13.40
2022-11-18T03:50:18.512Z,13.52
2022-11-18T03:52:49.004Z,15.73
2022-11-18T03:55:24.751Z,16.85
2022-11-18T03:58:05.770Z,18.40
2022-11-18T04:00:39.507Z,19.65
2022-11-18T04:03:07.949Z,18.83
2022-11-18T04:05:40.709Z,19.25
2022-11-18T04:08:24.763Z,19.13
2022-11-18T04:11:35.269Z,18.65
2022-11-18T04:14:04.939Z,16.95
2022-11-18T04:16:42.908Z,16.90
2022-11-18T04:19:11.861Z,16.90
2022-11-18T04:21:40.049Z,13.20
2022-11-18T04:24:08.535Z,13.75
2022-11-18T04:26:36.744Z,13.27
2022-11-18T04:29:04.904Z,13.55
2022-11-18T04:31:33.152Z,12.98
2022-11-18T04:34:01.927Z,11.63
2022-11-18T04:36:30.106Z,11.57
2022-11-18T04:38:58.266Z,11.65
2022-11-18T04:41:47.161Z,11.18
2022-11-18T04:44:15.304Z,9.98
2022-11-18T04:46:44.539Z,10.77
2022-11-18T04:49:17.692Z,10.60
2022-11-18T04:54:16.293Z,10.00
2022-11-18T04:56:48.962Z,10.43
2022-11-18T04:59:21.058Z,10.07
2022-11-18T05:01:50.285Z,9.43
2022-11-18T05:04:22.176Z,10.35
2022-11-18T05:06:50.498Z,11.23
2022-11-18T05:09:19.580Z,11.05
2022-11-18T05:12:06.791Z,11.27
2022-11-18T05:14:38.045Z,10.70
2022-11-18T05:17:09.014Z,10.70
2022-11-18T05:19:40.360Z,11.10
2022-11-18T05:22:08.887Z,10.30
2022-11-18T05:24:37.178Z,10.60
2022-11-18T05:27:05.391Z,10.40
2022-11-18T05:29:34.396Z,9.18
2022-11-18T05:32:02.685Z,10.10
2022-11-18T05:34:30.821Z,10.40
2022-11-18T05:36:59.634Z,9.63
2022-11-18T05:39:27.751Z,11.40
2022-11-18T05:42:14.352Z,9.75
2022-11-18T05:44:42.509Z,10.38
2022-11-18T05:47:10.842Z,9.93
2022-11-18T05:49:38.991Z,10.38
2022-11-18T05:52:08.323Z,9.38
2022-11-18T05:54:42.401Z,10.50
2022-11-18T05:57:10.523Z,9.35
2022-11-18T05:59:38.596Z,10.48
2022-11-18T06:02:16.022Z,10.85
2022-11-18T06:04:51.019Z,9.85
2022-11-18T06:07:40.798Z,10.18
2022-11-18T06:10:18.295Z,9.75
2022-11-18T06:12:50.195Z,9.82
2022-11-18T06:15:26.103Z,10.20
2022-11-18T06:18:03.204Z,9.95
2022-11-18T06:20:34.049Z,10.43
2022-11-18T06:23:05.153Z,10.63
2022-11-18T06:25:33.903Z,11.23
2022-11-18T06:28:03.559Z,9.80
2022-11-18T06:30:31.853Z,10.85
2022-11-18T06:33:00.017Z,10.80
2022-11-18T06:35:28.103Z,10.38
2022-11-18T06:37:56.269Z,10.15
2022-11-18T06:40:24.511Z,10.57
2022-11-18T06:43:11.109Z,10.63
2022-11-18T06:45:39.327Z,9.93
2022-11-18T06:48:07.585Z,11.23
2022-11-18T06:50:35.851Z,11.35
2022-11-18T06:53:04.125Z,10.70
2022-11-18T06:55:32.426Z,11.63
2022-11-18T06:58:00.886Z,11.23
2022-11-18T07:00:29.191Z,12.70
2022-11-18T07:02:57.458Z,12.20
2022-11-18T07:05:25.582Z,12.32
2022-11-18T07:07:53.797Z,12.82
2022-11-18T07:10:22.040Z,14.02
2022-11-18T07:12:52.650Z,13.90
2022-11-18T07:15:20.831Z,13.35
2022-11-18T07:17:48.951Z,12.40
2022-11-18T07:20:19.997Z,13.48
2022-11-18T07:22:48.227Z,16.60
2022-11-18T07:25:16.423Z,16.70
2022-11-18T07:27:50.203Z,16.00
2022-11-18T07:30:18.602Z,16.42
2022-11-18T07:32:46.762Z,18.42
2022-11-18T07:35:15.014Z,17.60
2022-11-18T07:37:43.203Z,19.05
2022-11-18T07:40:11.668Z,17.70
2022-11-18T07:42:45.548Z,17.52
2022-11-18T07:45:25.655Z,20.02
2022-11-18T07:47:54.399Z,20.90
2022-11-18T07:50:22.614Z,21.73
2022-11-18T07:52:50.889Z,24.23
2022-11-18T07:55:18.988Z,25.60
2022-11-18T07:57:47.183Z,25.85
2022-11-18T08:00:15.696Z,26.98
2022-11-18T08:02:44.021Z,26.48
2022-11-18T08:05:17.686Z,29.38
2022-11-18T08:07:46.414Z,27.88
2022-11-18T08:10:14.799Z,28.55
2022-11-18T08:12:43.012Z,29.25
2022-11-18T08:15:11.414Z,29.67
2022-11-18T08:17:39.526Z,30.17
2022-11-18T08:20:08.209Z,28.33
2022-11-18T08:22:36.360Z,34.92
2022-11-18T08:25:04.920Z,32.25
2022-11-18T08:27:33.631Z,34.60
2022-11-18T08:30:01.807Z,34.08
2022-11-18T08:32:30.223Z,36.75
2022-11-18T08:34:58.380Z,43.28
2022-11-18T08:37:26.527Z,43.28
2022-11-18T08:39:54.839Z,42.83
2022-11-18T08:42:24.491Z,43.70
2022-11-18T08:44:53.266Z,42.65
2022-11-18T08:47:21.619Z,43.50
2022-11-18T08:49:50.403Z,43.42
2022-11-18T08:52:18.570Z,44.42
2022-11-18T08:54:46.655Z,42.78
2022-11-18T08:57:14.896Z,43.35
2022-11-18T08:59:43.058Z,43.72
2022-11-18T09:02:16.272Z,42.28
2022-11-18T09:04:52.849Z,44.40
2022-11-18T09:07:22.290Z,44.08
2022-11-18T09:09:50.424Z,39.17
2022-11-18T09:12:18.683Z,43.03
2022-11-18T09:15:12.910Z,43.33
2022-11-18T09:17:35.604Z,42.63
2022-11-18T09:20:04.107Z,43.30
2022-11-18T09:22:32.263Z,42.60
2022-11-18T09:25:00.432Z,41.60
2022-11-18T09:27:28.600Z,41.25
2022-11-18T09:29:56.773Z,43.28
2022-11-18T09:32:25.008Z,41.17
2022-11-18T09:34:53.159Z,39.45
2022-11-18T09:37:22.507Z,41.33
2022-11-18T09:39:51.122Z,39.58
2022-11-18T09:42:19.269Z,42.15
2022-11-18T09:44:59.583Z,42.53
2022-11-18T09:47:33.685Z,42.13
2022-11-18T09:50:26.760Z,42.15
2022-11-18T09:53:06.751Z,40.85
2022-11-18T09:55:39.577Z,41.40
2022-11-18T09:58:15.180Z,43.25
2022-11-18T10:00:44.852Z,44.22
2022-11-18T10:03:28.054Z,44.80
2022-11-18T10:06:07.218Z,42.95
2022-11-18T10:08:58.592Z,41.97
2022-11-18T10:11:40.221Z,38.55
2022-11-18T10:14:51.481Z,39.95
2022-11-18T10:17:41.388Z,38.47
2022-11-18T10:21:07.180Z,39.58
2022-11-18T10:24:00.294Z,37.85
2022-11-18T10:26:40.815Z,36.80
2022-11-18T10:29:10.947Z,35.15
2022-11-18T10:32:07.733Z,37.42
2022-11-18T10:34:46.130Z,34.00
2022-11-18T10:38:05.780Z,35.72
2022-11-18T10:40:27.721Z,38.15
2022-11-18T10:42:56.754Z,38.05
2022-11-18T10:45:28.866Z,40.28
2022-11-18T10:48:15.528Z,38.15
2022-11-18T10:50:54.791Z,38.38
2022-11-18T10:53:36.179Z,35.53
2022-11-18T10:56:07.495Z,37.15
2022-11-18T10:58:41.275Z,37.38
2022-11-18T11:01:23.033Z,38.67
2022-11-18T11:04:04.853Z,38.70
2022-11-18T11:06:40.034Z,37.38
2022-11-18T11:09:08.163Z,36.97
2022-11-18T11:11:58.674Z,38.38
2022-11-18T11:14:53.318Z,36.33
2022-11-18T11:17:30.686Z,36.30
2022-11-18T11:20:19.743Z,36.50
2022-11-18T11:22:48.553Z,38.13
2022-11-18T11:28:33.914Z,35.38
2022-11-18T11:31:14.400Z,32.80
2022-11-18T11:33:52.828Z,34.10
2022-11-18T11:36:28.551Z,34.90
2022-11-18T11:39:18.646Z,33.88
2022-11-18T11:42:02.187Z,37.15
2022-11-18T11:44:36.206Z,32.92
2022-11-18T11:47:49.959Z,34.50
2022-11-18T11:51:00.050Z,35.22
2022-11-18T11:54:20.448Z,33.53
2022-11-18T11:57:39.520Z,30.30
2022-11-18T12:00:17.630Z,33.72
2022-11-18T12:03:09.388Z,31.85
2022-11-18T12:05:40.626Z,32.72
2022-11-18T12:08:22.588Z,32.97
2022-11-18T12:11:09.239Z,32.50
2022-11-18T12:14:01.288Z,29.63
2022-11-18T12:16:33.048Z,31.15
2022-11-18T12:19:18.217Z,32.22
2022-11-18T12:21:46.653Z,29.27
2022-11-18T12:24:25.850Z,27.45
2022-11-18T12:26:54.317Z,26.40
2022-11-18T12:29:25.757Z,27.98
2022-11-18T12:32:14.408Z,27.50
2022-11-18T12:34:44.450Z,27.25
2022-11-18T12:37:24.537Z,25.85
2022-11-18T12:39:55.646Z,26.27
2022-11-18T12:42:57.743Z,25.92
2022-11-18T12:45:41.349Z,25.35
2022-11-18T12:51:16.140Z,24.27
2022-11-18T12:53:46.651Z,23.65
2022-11-18T12:56:36.727Z,23.33
2022-11-18T12:59:05.048Z,21.48
2022-11-18T13:01:37.392Z,22.05
2022-11-18T13:04:20.088Z,18.35
2022-11-18T13:06:49.145Z,21.73
2022-11-18T13:09:29.522Z,20.98
2022-11-18T13:12:04.792Z,23.25
2022-11-18T13:15:10.432Z,23.10
2022-11-18T13:17:52.154Z,24.90
2022-11-18T13:20:31.308Z,24.48
2022-11-18T13:23:30.069Z,24.58
2022-11-18T13:26:07.930Z,25.75
2022-11-18T13:28:57.384Z,26.73
2022-11-18T13:31:47.183Z,26.58
2022-11-18T13:34:25.635Z,26.02
2022-11-18T13:36:56.528Z,25.83
2022-11-18T13:39:31.044Z,24.55
2022-11-18T13:42:20.522Z,24.27
2022-11-18T13:44:59.190Z,25.23
2022-11-18T13:47:54.856Z,26.77
2022-11-18T13:50:37.012Z,26.45
2022-11-18T13:53:27.186Z,28.23
2022-11-18T13:56:04.703Z,29.30
2022-11-18T14:01:34.127Z,31.42
2022-11-18T14:04:09.664Z,31.80
2022-11-18T14:06:38.832Z,31.35
2022-11-18T14:09:26.959Z,33.40
2022-11-18T14:12:20.657Z,34.38
2022-11-18T14:14:48.800Z,31.08
2022-11-18T14:17:24.208Z,32.08
2022-11-18T14:19:55.246Z,31.85
2022-11-18T14:22:31.133Z,32.17
2022-11-18T14:25:36.099Z,33.10
2022-11-18T14:28:21.397Z,32.35
2022-11-18T14:31:17.220Z,29.48
2022-11-18T14:34:25.908Z,30.13
2022-11-18T14:36:55.755Z,31.77
2022-11-18T14:39:27.242Z,32.10
2022-11-18T14:41:57.028Z,33.95
2022-11-18T14:44:27.515Z,32.13
2022-11-18T14:47:04.834Z,31.52
2022-11-18T14:49:34.051Z,32.30
2022-11-18T14:52:04.361Z,33.33
2022-11-18T14:54:32.878Z,34.53
2022-11-18T14:57:04.586Z,34.17
2022-11-18T14:59:32.960Z,34.47
2022-11-18T15:02:01.241Z,34.70
2022-11-18T15:04:29.526Z,34.45
2022-11-18T15:06:57.734Z,35.72
2022-11-18T15:09:25.944Z,34.97
2022-11-18T15:11:54.356Z,34.78
2022-11-18T15:14:22.557Z,35.72
2022-11-18T15:16:50.717Z,36.13
2022-11-18T15:19:18.946Z,35.13
2022-11-18T15:21:47.102Z,36.85
2022-11-18T15:24:15.617Z,35.70
2022-11-18T15:26:46.607Z,37.10
2022-11-18T15:29:20.399Z,35.70
2022-11-18T15:31:49.270Z,34.63
2022-11-18T15:34:20.422Z,38.05
2022-11-18T15:36:49.350Z,36.45
2022-11-18T15:39:17.534Z,35.90
2022-11-18T15:41:45.770Z,37.78
2022-11-18T15:44:13.944Z,35.88
2022-11-18T15:46:42.168Z,36.00
2022-11-18T15:49:14.601Z,37.15
2022-11-18T15:51:42.950Z,37.10
2022-11-18T15:54:11.495Z,39.42
2022-11-18T15:56:41.557Z,37.35
2022-11-18T15:59:12.598Z,38.08
2022-11-18T16:01:46.996Z,38.50
2022-11-18T16:04:17.660Z,37.42
2022-11-18T16:06:46.598Z,39.17
2022-11-18T16:09:16.757Z,41.22
2022-11-18T16:12:03.721Z,41.13
2022-11-18T16:14:31.906Z,41.38
2022-11-18T16:17:00.090Z,40.85
2022-11-18T16:19:31.429Z,39.72
2022-11-18T16:21:59.850Z,41.10
2022-11-18T16:24:29.890Z,41.58
2022-11-18T16:26:58.411Z,39.63
2022-11-18T16:29:26.622Z,39.88
2022-11-18T16:31:55.036Z,39.78
2022-11-18T16:34:28.015Z,39.95
2022-11-18T16:36:59.639Z,42.45
2022-11-18T16:39:28.857Z,40.22
2022-11-18T16:42:06.679Z,40.42
2022-11-18T16:44:36.594Z,39.58
2022-11-18T16:47:12.320Z,41.03
2022-11-18T16:49:43.455Z,38.65
2022-11-18T16:52:11.701Z,37.60
2022-11-18T16:54:45.377Z,39.53
2022-11-18T16:57:17.319Z,38.83
2022-11-18T16:59:45.461Z,39.55
2022-11-18T17:02:14.766Z,40.22
2022-11-18T17:04:43.913Z,39.03
2022-11-18T17:07:12.563Z,40.55
2022-11-18T17:09:40.771Z,41.67
2022-11-18T17:12:09.156Z,40.78
2022-11-18T17:14:38.505Z,41.15
2022-11-18T17:17:07.409Z,40.80
2022-11-18T17:19:36.660Z,45.92
2022-11-18T17:22:04.964Z,40.97
2022-11-18T17:24:33.112Z,41.72
2022-11-18T17:27:02.132Z,40.47
2022-11-18T17:29:30.360Z,40.03
2022-11-18T17:31:58.560Z,38.88
2022-11-18T17:34:26.673Z,41.05
2022-11-18T17:36:54.832Z,37.60
2022-11-18T17:39:23.214Z,39.85
2022-11-18T17:42:09.851Z,42.42
2022-11-18T17:44:38.040Z,37.55
2022-11-18T17:47:06.654Z,39.25
2022-11-18T17:49:34.814Z,38.33
2022-11-18T17:52:03.050Z,40.22
2022-11-18T17:54:31.207Z,36.90
2022-11-18T17:56:59.380Z,37.22
2022-11-18T17:59:27.572Z,38.65
2022-11-18T18:01:59.296Z,38.55
2022-11-18T18:04:28.111Z,38.55
2022-11-18T18:06:56.542Z,38.60
2022-11-18T18:09:28.902Z,38.08
2022-11-18T18:12:00.368Z,38.25
2022-11-18T18:14:28.702Z,39.28
2022-11-18T18:16:56.998Z,35.30
2022-11-18T18:19:25.438Z,37.10
2022-11-18T18:21:54.373Z,35.05
2022-11-18T18:24:23.285Z,36.97
2022-11-18T18:26:51.651Z,35.30
2022-11-18T18:29:19.950Z,35.08
2022-11-18T18:31:51.468Z,36.33
2022-11-18T18:34:19.785Z,35.13
2022-11-18T18:36:48.071Z,36.08
2022-11-18T18:39:16.279Z,37.47
2022-11-18T18:41:44.409Z,32.97
2022-11-18T18:44:18.344Z,32.47
2022-11-18T18:46:47.093Z,32.75
2022-11-18T18:49:20.497Z,31.55
2022-11-18T18:51:50.136Z,33.35
2022-11-18T18:54:20.318Z,34.85
2022-11-18T18:56:48.839Z,33.72
2022-11-18T18:59:17.016Z,34.20
2022-11-18T19:01:45.458Z,33.28
2022-11-18T19:04:14.372Z,32.25
2022-11-18T19:06:56.782Z,34.85
2022-11-18T19:09:26.929Z,32.67
2022-11-18T19:12:13.949Z,30.98
2022-11-18T19:14:42.242Z,32.22
2022-11-18T19:17:12.702Z,35.78
2022-11-18T19:20:01.175Z,38.55
2022-11-18T19:22:31.457Z,40.10
2022-11-18T19:25:01.409Z,39.70
2022-11-18T19:27:30.418Z,39.63
2022-11-18T19:29:58.678Z,40.13
2022-11-18T19:32:27.122Z,39.65
2022-11-18T19:34:55.230Z,38.65
2022-11-18T19:37:23.367Z,38.72
2022-11-18T19:39:53.017Z,35.13
2022-11-18T19:42:21.184Z,31.67
2022-11-18T19:44:49.474Z,29.80
2022-11-18T19:47:17.966Z,33.90
2022-11-18T19:49:46.276Z,25.55
2022-11-18T19:52:14.650Z,24.52
2022-11-18T19:54:42.758Z,22.27
2022-11-18T19:57:10.934Z,24.40
2022-11-18T19:59:39.585Z,26.50
2022-11-18T20:02:10.574Z,24.88
2022-11-18T20:04:38.823Z,23.58
2022-11-18T20:07:07.014Z,23.10
2022-11-18T20:09:35.250Z,23.38
2022-11-18T20:12:03.526Z,24.88
2022-11-18T20:14:32.281Z,24.25
2022-11-18T20:17:03.244Z,26.38
2022-11-18T20:19:31.339Z,28.30
2022-11-18T20:21:59.492Z,31.45
2022-11-18T20:24:27.689Z,34.22
2022-11-18T20:26:55.814Z,33.45
2022-11-18T20:29:24.000Z,34.60
2022-11-18T20:31:53.538Z,35.17
2022-11-18T20:34:22.117Z,40.08
2022-11-18T20:36:52.380Z,37.67
2022-11-18T20:39:20.843Z,36.97
2022-11-18T20:42:08.244Z,35.78
2022-11-18T20:44:36.451Z,32.47
2022-11-18T20:47:04.649Z,31.90
2022-11-18T20:49:32.826Z,32.10
2022-11-18T20:52:00.944Z,30.60
2022-11-18T20:54:29.175Z,29.65
2022-11-18T20:56:57.634Z,28.55
2022-11-18T20:59:25.995Z,29.52
2022-11-18T21:01:54.193Z,29.67
2022-11-18T21:04:22.443Z,31.35
2022-11-18T21:06:52.272Z,29.13
2022-11-18T21:09:23.353Z,30.38
2022-11-18T21:11:52.100Z,28.63
2022-11-18T21:14:24.787Z,27.35
2022-11-18T21:19:23.879Z,26.50
2022-11-18T21:21:52.726Z,25.48
2022-11-18T21:24:28.879Z,26.75
2022-11-18T21:26:58.267Z,26.42
2022-11-18T21:29:29.031Z,27.13
2022-11-18T21:32:03.775Z,25.20
2022-11-18T21:34:32.144Z,28.08
2022-11-18T21:37:00.367Z,26.65
2022-11-18T21:39:28.493Z,26.65
2022-11-18T21:41:57.624Z,27.83
2022-11-18T21:44:28.399Z,29.60
2022-11-18T21:46:57.598Z,26.50
2022-11-18T21:49:25.841Z,27.35
2022-11-18T21:51:54.001Z,30.80
2022-11-18T21:54:22.177Z,31.42
2022-11-18T21:56:53.778Z,33.90
2022-11-18T21:59:23.674Z,33.67
2022-11-18T22:01:51.922Z,35.00
2022-11-18T22:04:38.479Z,35.47
2022-11-18T22:07:06.710Z,37.70
2022-11-18T22:09:36.778Z,35.42
2022-11-18T22:12:06.794Z,36.03
2022-11-18T22:14:35.281Z,36.42
2022-11-18T22:17:03.895Z,38.22
2022-11-18T22:19:35.003Z,36.13
2022-11-18T22:22:03.257Z,36.50
2022-11-18T22:24:31.436Z,36.38
2022-11-18T22:26:59.597Z,35.08
2022-11-18T22:29:28.722Z,33.20
2022-11-18T22:31:57.231Z,35.20
2022-11-18T22:34:25.549Z,34.28
2022-11-18T22:36:53.659Z,32.03
2022-11-18T22:39:22.280Z,34.50
2022-11-18T22:42:12.009Z,33.03
2022-11-18T22:44:40.198Z,33.50
2022-11-18T22:47:08.392Z,32.40
2022-11-18T22:49:36.572Z,34.30
2022-11-18T22:52:04.832Z,33.30
2022-11-18T22:54:40.580Z,31.70
2022-11-18T22:57:09.329Z,30.80
2022-11-18T22:59:37.591Z,30.55
2022-11-18T23:02:06.222Z,31.08
2022-11-18T23:04:34.507Z,31.50
2022-11-18T23:07:03.063Z,33.15
2022-11-18T23:09:31.469Z,32.95
2022-11-18T23:12:18.388Z,32.40
2022-11-18T23:14:46.633Z,33.25
2022-11-18T23:17:16.011Z,30.85
2022-11-18T23:19:44.424Z,30.90
2022-11-18T23:22:13.087Z,30.52
2022-11-18T23:24:41.242Z,31.45
2022-11-18T23:27:09.566Z,31.80
2022-11-18T23:29:37.731Z,30.58
2022-11-18T23:32:06.205Z,31.90
2022-11-18T23:34:34.400Z,32.22
2022-11-18T23:37:02.625Z,31.15
2022-11-18T23:39:30.870Z,31.73
2022-11-18T23:41:59.140Z,32.63
2022-11-18T23:44:45.274Z,31.00
2022-11-18T23:47:14.323Z,29.13
2022-11-18T23:49:42.485Z,30.35
2022-11-18T23:52:10.820Z,28.40
2022-11-18T23:54:39.029Z,27.85
2022-11-18T23:57:07.328Z,28.88
2022-11-18T23:59:35.541Z,28.55
